Pagina principală
METAR-TAF:

METAR-TAF

Aeroporturi :

Schenck Field

Clarinda, Iowa, Statele Unite ale Americii

Latitudine: 40-43N, longitudine: 095-02W, elevație: 303 m

Observații meteo curente

Raportul a fost făcut în urmă cu 11 de minute, la 16:35 UTC
Vânt 13 kt de la Nord-vest
Temperatură 6°C
Umiditate 42%
Presiune 1031 hPa
Vizibilitate: 16.1 km
Nori împrăștiați la o înălțime de 4900 picior
Nori împrăștiați la o înălțime de 5500 picior

METAR: KICL 201635Z AUTO 32013KT 10SM SCT049 SCT055 06/M06 A3044 RMK AO2

Ora: 11:46 (16:46 UTC)


TAF: lipsă

Observații și prognoze meteo pentru peste 4.000 de aeroporturi (rapoarte METAR și TAF).

Stațiile disponibile sunt reprezentate pe hartă prin puncte galbene și roșii.

Țineți indicatorul mouse-ului pe punctul dorit pentru a vedea denumirea stației.

Apoi, faceți clic pentru a vedea observațiile și prognozele meteorologice.

Pentru a schimba harta: Pentru mărire, faceți clic pe butoanele verzi cu cruce neagră; pentru micșorare, pe butonul verde cu o liniuță; pentru hărți învecinate, pe săgețile verzi.


METAR-TAF: